createdAt,value
2023-02-23T00:00:36.834Z,75.31
2023-02-23T00:01:42.239Z,74.97
2023-02-23T00:02:45.178Z,73.80
2023-02-23T00:03:49.792Z,74.04
2023-02-23T00:04:52.606Z,72.27
2023-02-23T00:05:55.320Z,72.22
2023-02-23T00:06:58.247Z,72.14
2023-02-23T00:08:02.055Z,71.57
2023-02-23T00:09:23.419Z,71.32
2023-02-23T00:10:30.657Z,71.05
2023-02-23T00:11:33.964Z,71.31
2023-02-23T00:12:36.692Z,71.62
2023-02-23T00:13:41.283Z,71.63
2023-02-23T00:14:44.262Z,71.89
2023-02-23T00:15:47.175Z,72.59
2023-02-23T00:16:50.211Z,71.94
2023-02-23T00:17:55.880Z,71.76
2023-02-23T00:19:00.731Z,71.80
2023-02-23T00:20:08.461Z,70.95
2023-02-23T00:21:20.445Z,70.93
2023-02-23T00:22:25.737Z,70.85
2023-02-23T00:23:28.462Z,70.70
2023-02-23T00:24:31.311Z,70.48
2023-02-23T00:25:34.051Z,70.69
2023-02-23T00:26:39.297Z,70.47
2023-02-23T00:27:46.171Z,70.94
2023-02-23T00:28:51.329Z,70.17
2023-02-23T00:29:54.450Z,69.75
2023-02-23T00:30:59.872Z,70.10
2023-02-23T00:32:03.203Z,70.63
2023-02-23T00:33:06.112Z,70.53
2023-02-23T00:34:11.257Z,69.64
2023-02-23T00:35:19.866Z,70.45
2023-02-23T00:36:24.913Z,70.31
2023-02-23T00:37:28.335Z,70.06
2023-02-23T00:38:36.193Z,70.34
2023-02-23T00:39:39.990Z,69.73
2023-02-23T00:40:43.032Z,70.12
2023-02-23T00:41:46.854Z,69.75
2023-02-23T00:42:51.770Z,70.32
2023-02-23T00:43:59.022Z,69.83
2023-02-23T00:45:08.336Z,69.82
2023-02-23T00:46:11.777Z,70.68
2023-02-23T00:47:14.827Z,70.61
2023-02-23T00:48:17.688Z,70.70
2023-02-23T00:49:22.206Z,70.48
2023-02-23T00:50:25.088Z,70.08
2023-02-23T00:51:31.332Z,70.05
2023-02-23T00:52:34.209Z,69.39
2023-02-23T00:53:37.126Z,70.59
2023-02-23T00:54:40.118Z,70.43
2023-02-23T00:55:42.855Z,70.25
2023-02-23T00:56:46.777Z,70.84
2023-02-23T00:57:49.933Z,70.78
2023-02-23T00:58:52.877Z,70.97
2023-02-23T00:59:55.866Z,70.98
2023-02-23T01:00:59.664Z,70.26
2023-02-23T01:02:02.722Z,70.12
2023-02-23T01:03:05.792Z,69.94
2023-02-23T01:04:09.437Z,70.08
2023-02-23T01:05:12.164Z,70.42
2023-02-23T01:06:17.836Z,70.40
2023-02-23T01:07:20.927Z,70.52
2023-02-23T01:08:23.991Z,70.35
2023-02-23T01:09:29.672Z,70.79
2023-02-23T01:10:32.804Z,71.35
2023-02-23T01:11:35.854Z,71.53
2023-02-23T01:12:38.817Z,70.88
2023-02-23T01:13:44.592Z,71.15
2023-02-23T01:14:47.903Z,71.55
2023-02-23T01:15:52.362Z,71.21
2023-02-23T01:16:55.422Z,71.31
2023-02-23T01:17:58.626Z,71.05
2023-02-23T01:19:04.722Z,70.25
2023-02-23T01:21:23.007Z,71.05
2023-02-23T01:22:25.835Z,70.82
2023-02-23T01:23:28.644Z,70.62
2023-02-23T01:24:31.521Z,70.88
2023-02-23T01:25:35.294Z,71.10
2023-02-23T01:26:41.985Z,71.47
2023-02-23T01:27:45.615Z,71.15
2023-02-23T01:28:50.876Z,70.41
2023-02-23T01:29:54.990Z,70.37
2023-02-23T01:30:57.915Z,70.60
2023-02-23T01:32:03.254Z,71.19
2023-02-23T01:33:07.563Z,71.56
2023-02-23T01:34:13.674Z,71.56
2023-02-23T01:35:16.470Z,71.21
2023-02-23T01:36:19.601Z,71.42
2023-02-23T01:37:22.589Z,71.66
2023-02-23T01:38:25.622Z,71.46
2023-02-23T01:39:28.447Z,71.28
2023-02-23T01:40:32.996Z,70.95
2023-02-23T01:41:37.335Z,70.93
2023-02-23T01:42:42.284Z,71.15
2023-02-23T01:44:08.569Z,71.04
2023-02-23T01:45:42.499Z,71.40
2023-02-23T01:46:46.738Z,71.51
2023-02-23T01:47:52.063Z,71.19
2023-02-23T01:48:56.572Z,71.46
2023-02-23T01:49:59.293Z,71.86
2023-02-23T01:51:15.689Z,71.60
2023-02-23T01:52:19.824Z,71.32
2023-02-23T01:53:24.033Z,71.91
2023-02-23T01:54:32.357Z,72.00
2023-02-23T01:55:35.412Z,71.86
2023-02-23T01:56:44.618Z,71.07
2023-02-23T01:57:47.410Z,70.92
2023-02-23T01:58:53.134Z,71.32
2023-02-23T01:59:56.389Z,71.24
2023-02-23T02:01:03.299Z,71.12
2023-02-23T02:02:06.236Z,71.42
2023-02-23T02:03:14.275Z,71.39
2023-02-23T02:04:20.012Z,71.47
2023-02-23T02:05:23.513Z,71.28
2023-02-23T02:06:29.455Z,70.81
2023-02-23T02:07:35.481Z,70.97
2023-02-23T02:08:45.254Z,71.19
2023-02-23T02:10:09.252Z,71.17
2023-02-23T02:11:36.876Z,71.59
2023-02-23T02:12:41.576Z,71.18
2023-02-23T02:13:44.533Z,70.97
2023-02-23T02:14:47.412Z,70.90
2023-02-23T02:16:29.231Z,70.41
2023-02-23T02:17:46.507Z,70.54
2023-02-23T02:18:58.296Z,70.58
2023-02-23T02:20:42.992Z,70.68
2023-02-23T02:21:57.819Z,70.73
2023-02-23T02:23:22.447Z,71.12
2023-02-23T02:24:59.161Z,71.66
2023-02-23T02:26:37.171Z,71.35
2023-02-23T02:28:08.923Z,71.45
2023-02-23T02:29:43.883Z,71.25
2023-02-23T02:31:05.310Z,70.56
2023-02-23T02:32:44.622Z,70.33
2023-02-23T02:34:03.852Z,70.20
2023-02-23T02:35:30.809Z,70.52
2023-02-23T02:36:55.095Z,70.64
2023-02-23T02:38:16.926Z,70.96
2023-02-23T02:40:16.282Z,70.90
2023-02-23T02:41:23.034Z,70.83
2023-02-23T02:42:28.554Z,70.51
2023-02-23T02:43:36.810Z,70.47
2023-02-23T02:44:50.674Z,69.89
2023-02-23T02:46:01.897Z,70.53
2023-02-23T02:47:17.372Z,70.41
2023-02-23T02:48:38.767Z,70.48
2023-02-23T02:49:52.216Z,70.34
2023-02-23T02:51:03.910Z,70.01
2023-02-23T02:52:19.536Z,69.96
2023-02-23T02:53:50.218Z,69.21
2023-02-23T02:55:12.451Z,69.56
2023-02-23T02:56:20.111Z,69.92
2023-02-23T02:57:28.556Z,70.50
2023-02-23T02:58:33.696Z,70.17
2023-02-23T03:00:06.532Z,70.17
2023-02-23T03:01:33.769Z,70.42
2023-02-23T03:02:58.594Z,70.71
2023-02-23T03:04:43.277Z,70.62
2023-02-23T03:06:08.473Z,70.38
2023-02-23T03:07:39.607Z,70.49
2023-02-23T03:09:13.628Z,70.19
2023-02-23T03:11:13.479Z,70.02
2023-02-23T03:12:56.840Z,70.11
2023-02-23T03:14:36.742Z,70.51
2023-02-23T03:16:23.917Z,70.14
2023-02-23T03:19:32.232Z,70.18
2023-02-23T03:20:54.005Z,70.31
2023-02-23T03:22:24.392Z,69.44
2023-02-23T03:24:07.913Z,69.69
2023-02-23T03:25:36.781Z,69.24
2023-02-23T03:27:17.559Z,69.65
2023-02-23T03:28:43.899Z,69.55
2023-02-23T03:30:44.179Z,69.38
2023-02-23T03:32:17.961Z,69.05
2023-02-23T03:34:05.553Z,69.73
2023-02-23T03:35:29.903Z,68.88
2023-02-23T03:36:56.101Z,68.88
2023-02-23T03:39:06.877Z,68.94
2023-02-23T03:40:31.814Z,69.08
2023-02-23T03:41:57.115Z,68.92
2023-02-23T03:43:24.555Z,68.50
2023-02-23T03:44:54.571Z,68.59
2023-02-23T03:46:17.264Z,68.89
2023-02-23T03:47:44.229Z,68.78
2023-02-23T03:49:08.635Z,68.64
2023-02-23T03:50:37.025Z,68.72
2023-02-23T03:52:04.321Z,69.72
2023-02-23T03:53:29.588Z,69.58
2023-02-23T03:54:58.062Z,70.09
2023-02-23T03:56:20.791Z,69.98
2023-02-23T03:57:46.459Z,70.10
2023-02-23T03:59:17.296Z,70.16
2023-02-23T04:00:46.667Z,70.38
2023-02-23T04:02:14.418Z,69.76
2023-02-23T04:03:37.667Z,69.52
2023-02-23T04:04:59.849Z,68.88
2023-02-23T04:06:25.559Z,69.61
2023-02-23T04:07:48.436Z,69.78
2023-02-23T04:09:11.169Z,69.35
2023-02-23T04:10:32.706Z,69.79
2023-02-23T04:12:01.641Z,69.28
2023-02-23T04:13:17.190Z,69.83
2023-02-23T04:14:26.935Z,69.75
2023-02-23T04:15:41.489Z,69.57
2023-02-23T04:16:45.382Z,69.29
2023-02-23T04:17:48.156Z,69.12
2023-02-23T04:18:51.103Z,68.93
2023-02-23T04:19:55.652Z,69.55
2023-02-23T04:21:00.047Z,69.66
2023-02-23T04:22:03.252Z,69.71
2023-02-23T04:23:06.009Z,69.29
2023-02-23T04:24:10.352Z,68.93
2023-02-23T04:25:17.372Z,68.97
2023-02-23T04:26:20.419Z,68.78
2023-02-23T04:27:23.293Z,69.20
2023-02-23T04:28:28.142Z,69.25
2023-02-23T04:29:30.901Z,69.35
2023-02-23T04:30:33.762Z,69.11
2023-02-23T04:31:36.656Z,70.05
2023-02-23T04:32:39.591Z,69.75
2023-02-23T04:33:42.530Z,69.43
2023-02-23T04:34:45.797Z,69.29
2023-02-23T04:35:49.374Z,69.55
2023-02-23T04:36:52.093Z,69.33
2023-02-23T04:37:55.095Z,69.41
2023-02-23T04:38:57.986Z,69.74
2023-02-23T04:40:01.230Z,70.02
2023-02-23T04:41:04.222Z,69.34
2023-02-23T04:42:06.984Z,69.41
2023-02-23T04:43:13.388Z,69.25
2023-02-23T04:44:17.895Z,69.33
2023-02-23T04:45:22.307Z,69.45
2023-02-23T04:46:25.075Z,69.61
2023-02-23T04:47:27.973Z,69.58
2023-02-23T04:48:31.513Z,69.43
2023-02-23T04:49:34.290Z,69.67
2023-02-23T04:50:37.612Z,69.51
2023-02-23T04:51:40.656Z,69.96
2023-02-23T04:52:43.744Z,69.25
2023-02-23T04:53:46.463Z,69.02
2023-02-23T04:54:49.178Z,69.18
2023-02-23T04:55:51.976Z,69.25
2023-02-23T04:56:54.868Z,69.10
2023-02-23T04:58:00.452Z,68.86
2023-02-23T04:59:03.150Z,69.07
2023-02-23T05:00:06.798Z,69.05
2023-02-23T05:01:10.119Z,69.55
2023-02-23T05:02:13.371Z,69.77
2023-02-23T05:03:17.698Z,69.94
2023-02-23T05:04:20.500Z,70.31
2023-02-23T05:05:23.416Z,70.31
2023-02-23T05:06:26.312Z,70.91
2023-02-23T05:07:29.496Z,71.13
2023-02-23T05:08:32.523Z,71.25
2023-02-23T05:09:35.487Z,70.82
2023-02-23T05:10:40.233Z,71.35
2023-02-23T05:11:43.330Z,71.37
2023-02-23T05:12:47.088Z,71.54
2023-02-23T05:13:49.776Z,71.45
2023-02-23T05:14:52.632Z,71.39
2023-02-23T05:15:58.366Z,71.19
2023-02-23T05:17:01.404Z,71.39
2023-02-23T05:18:05.197Z,71.94
2023-02-23T05:19:10.639Z,71.38
2023-02-23T05:20:14.691Z,71.32
2023-02-23T05:21:18.158Z,71.12
2023-02-23T05:22:21.290Z,71.48
2023-02-23T05:23:24.114Z,71.47
2023-02-23T05:24:26.944Z,71.94
2023-02-23T05:25:29.587Z,72.02
2023-02-23T05:26:32.287Z,71.66
2023-02-23T05:27:35.400Z,71.63
2023-02-23T05:28:40.403Z,71.57
2023-02-23T05:29:43.144Z,71.52
2023-02-23T05:30:46.181Z,71.17
2023-02-23T05:31:49.216Z,71.10
2023-02-23T05:32:52.122Z,71.13
2023-02-23T05:33:55.085Z,71.24
2023-02-23T05:34:57.741Z,70.98
2023-02-23T05:36:00.937Z,70.49
2023-02-23T05:37:04.230Z,70.19
2023-02-23T05:38:07.242Z,70.37
2023-02-23T05:39:11.113Z,70.52
2023-02-23T05:40:14.185Z,70.08
2023-02-23T05:41:22.037Z,69.83
2023-02-23T05:42:25.227Z,70.00
2023-02-23T05:43:27.905Z,69.97
2023-02-23T05:44:30.680Z,70.38
2023-02-23T05:45:33.468Z,70.22
2023-02-23T05:46:36.920Z,70.00
2023-02-23T05:47:39.857Z,70.13
2023-02-23T05:48:43.310Z,69.95
2023-02-23T05:49:46.486Z,70.11
2023-02-23T05:50:49.778Z,70.10
2023-02-23T05:51:52.629Z,70.31
2023-02-23T05:52:55.446Z,70.33
2023-02-23T05:53:58.554Z,70.43
2023-02-23T05:55:01.563Z,70.38
2023-02-23T05:56:06.114Z,70.36
2023-02-23T05:57:08.797Z,70.81
2023-02-23T05:58:11.836Z,70.26
2023-02-23T05:59:14.689Z,70.05
2023-02-23T06:00:18.665Z,69.49
2023-02-23T06:01:22.977Z,69.61
2023-02-23T06:02:25.820Z,69.36
2023-02-23T06:03:28.493Z,69.47
2023-02-23T06:04:31.232Z,69.04
2023-02-23T06:05:33.885Z,69.06
2023-02-23T06:06:36.651Z,69.03
2023-02-23T06:07:39.686Z,69.27
2023-02-23T06:08:42.841Z,69.26
2023-02-23T06:09:45.737Z,69.02
2023-02-23T06:10:48.674Z,69.23
2023-02-23T06:11:51.778Z,68.82
2023-02-23T06:12:54.568Z,69.13
2023-02-23T06:13:59.704Z,69.27
2023-02-23T06:15:02.460Z,69.79
2023-02-23T06:16:06.512Z,69.77
2023-02-23T06:17:09.721Z,69.93
2023-02-23T06:18:12.813Z,69.89
2023-02-23T06:19:15.856Z,69.94
2023-02-23T06:20:18.706Z,69.77
2023-02-23T06:21:21.575Z,69.46
2023-02-23T06:22:24.267Z,69.40
2023-02-23T06:23:28.150Z,69.41
2023-02-23T06:24:30.890Z,69.79
2023-02-23T06:25:33.763Z,69.12
2023-02-23T06:26:36.741Z,68.76
2023-02-23T06:27:40.539Z,68.64
2023-02-23T06:28:43.522Z,68.93
2023-02-23T06:29:46.534Z,68.79
2023-02-23T06:30:53.192Z,69.02
2023-02-23T06:31:57.139Z,69.39
2023-02-23T06:33:01.609Z,69.28
2023-02-23T06:34:04.515Z,69.15
2023-02-23T06:35:08.509Z,68.59
2023-02-23T06:36:11.512Z,68.57
2023-02-23T06:37:14.242Z,68.44
2023-02-23T06:38:17.492Z,68.44
2023-02-23T06:39:20.417Z,68.38
2023-02-23T06:40:23.389Z,67.90
2023-02-23T06:41:28.734Z,68.43
2023-02-23T06:42:31.660Z,68.97
2023-02-23T06:43:34.539Z,68.65
2023-02-23T06:44:37.391Z,68.10
2023-02-23T06:45:41.073Z,68.11
2023-02-23T06:46:43.982Z,68.41
2023-02-23T06:47:47.436Z,68.21
2023-02-23T06:48:50.467Z,68.42
2023-02-23T06:49:53.591Z,68.42
2023-02-23T06:51:00.188Z,68.59
2023-02-23T06:52:03.236Z,68.43
2023-02-23T06:53:06.366Z,67.61
2023-02-23T06:54:09.258Z,67.43
2023-02-23T06:55:13.473Z,67.30
2023-02-23T06:56:16.288Z,67.02
2023-02-23T06:57:19.572Z,66.60
2023-02-23T06:58:22.621Z,66.73
2023-02-23T06:59:25.548Z,66.24
2023-02-23T07:00:29.780Z,66.00
2023-02-23T07:01:32.636Z,66.46
2023-02-23T07:02:37.584Z,66.93
2023-02-23T07:03:40.491Z,66.26
2023-02-23T07:04:43.430Z,65.06
2023-02-23T07:05:46.764Z,65.53
2023-02-23T07:06:49.703Z,64.76
2023-02-23T07:07:52.838Z,64.56
2023-02-23T07:08:58.411Z,63.66
2023-02-23T07:10:01.252Z,63.88
2023-02-23T07:11:13.578Z,63.58
2023-02-23T07:12:16.625Z,63.18
2023-02-23T07:13:20.729Z,62.99
2023-02-23T07:14:26.917Z,63.07
2023-02-23T07:15:30.112Z,62.61
2023-02-23T07:16:33.153Z,62.28
2023-02-23T07:17:37.113Z,63.33
2023-02-23T07:18:39.996Z,63.27
2023-02-23T07:19:43.019Z,62.91
2023-02-23T07:20:46.874Z,62.69
2023-02-23T07:21:49.642Z,63.24
2023-02-23T07:22:52.654Z,63.40
2023-02-23T07:23:55.689Z,62.78
2023-02-23T07:24:58.599Z,63.16
2023-02-23T07:26:02.116Z,62.22
2023-02-23T07:27:05.240Z,62.15
2023-02-23T07:28:08.151Z,62.70
2023-02-23T07:29:12.609Z,62.08
2023-02-23T07:30:15.971Z,62.77
2023-02-23T07:31:19.346Z,63.50
2023-02-23T07:32:22.371Z,62.66
2023-02-23T07:33:25.526Z,61.59
2023-02-23T07:34:28.647Z,60.70
2023-02-23T07:35:31.367Z,61.01
2023-02-23T07:36:34.377Z,61.67
2023-02-23T07:37:37.105Z,62.20
2023-02-23T07:38:39.974Z,60.79
2023-02-23T07:39:42.845Z,60.80
2023-02-23T07:40:45.694Z,60.37
2023-02-23T07:41:48.844Z,60.41
2023-02-23T07:42:52.388Z,60.64
2023-02-23T07:43:55.226Z,61.22
2023-02-23T07:44:58.191Z,60.28
2023-02-23T07:46:02.358Z,60.38
2023-02-23T07:47:05.715Z,60.92
2023-02-23T07:48:09.144Z,61.15
2023-02-23T07:49:11.940Z,60.69
2023-02-23T07:50:14.690Z,60.98
2023-02-23T07:51:18.446Z,61.27
2023-02-23T07:52:21.474Z,60.47
2023-02-23T07:53:25.589Z,60.28
2023-02-23T07:54:28.534Z,59.99
2023-02-23T07:55:31.281Z,59.55
2023-02-23T07:56:34.344Z,59.23
2023-02-23T07:57:38.580Z,59.49
2023-02-23T07:58:44.074Z,59.07
2023-02-23T07:59:50.372Z,59.58
2023-02-23T08:00:53.482Z,59.71
2023-02-23T08:01:56.377Z,59.48
2023-02-23T08:02:59.569Z,58.76
2023-02-23T08:04:02.499Z,58.37
2023-02-23T08:05:06.124Z,58.48
2023-02-23T08:06:08.937Z,58.35
2023-02-23T08:07:11.776Z,58.89
2023-02-23T08:08:14.638Z,59.32
2023-02-23T08:09:17.451Z,58.96
2023-02-23T08:10:20.369Z,58.74
2023-02-23T08:11:23.444Z,58.36
2023-02-23T08:12:26.500Z,58.45
2023-02-23T08:13:30.105Z,58.07
2023-02-23T08:14:32.961Z,57.95
2023-02-23T08:15:35.939Z,58.46
2023-02-23T08:16:39.032Z,58.65
2023-02-23T08:17:42.002Z,57.74
2023-02-23T08:18:45.154Z,57.44
2023-02-23T08:19:48.046Z,57.66
2023-02-23T08:20:51.133Z,57.97
2023-02-23T08:21:54.189Z,57.70
2023-02-23T08:22:57.958Z,58.11
2023-02-23T08:24:00.783Z,58.01
2023-02-23T08:25:06.154Z,58.08
2023-02-23T08:26:09.032Z,56.91
2023-02-23T08:27:12.982Z,57.16
2023-02-23T08:28:16.130Z,58.33
2023-02-23T08:29:19.347Z,57.97
2023-02-23T08:30:23.789Z,57.58
2023-02-23T08:31:27.837Z,57.75
2023-02-23T08:32:35.436Z,57.12
2023-02-23T08:33:39.408Z,57.01
2023-02-23T08:34:43.523Z,56.62
2023-02-23T08:35:46.367Z,57.31
2023-02-23T08:36:49.693Z,56.84
2023-02-23T08:37:52.791Z,56.75
2023-02-23T08:38:56.180Z,57.18
2023-02-23T08:40:00.891Z,57.49
2023-02-23T08:41:05.160Z,56.25
2023-02-23T08:42:08.185Z,56.49
2023-02-23T08:43:11.017Z,56.55
2023-02-23T08:44:13.947Z,56.79
2023-02-23T08:45:16.781Z,56.37
2023-02-23T08:46:20.906Z,57.41
2023-02-23T08:47:24.475Z,57.25
2023-02-23T08:48:27.518Z,56.90
2023-02-23T08:49:31.413Z,56.72
2023-02-23T08:50:34.352Z,56.42
2023-02-23T08:51:37.223Z,56.52
2023-02-23T08:52:40.934Z,57.03
2023-02-23T08:53:43.900Z,57.20
2023-02-23T08:54:47.466Z,57.45
2023-02-23T08:55:50.352Z,57.12
2023-02-23T08:56:58.086Z,57.16
2023-02-23T08:58:00.938Z,56.46
2023-02-23T08:59:03.872Z,56.61
2023-02-23T09:00:17.007Z,55.91
2023-02-23T09:01:24.563Z,56.19
2023-02-23T09:02:28.395Z,57.50
2023-02-23T09:03:32.121Z,57.42
2023-02-23T09:04:35.567Z,57.22
2023-02-23T09:05:39.116Z,56.54
2023-02-23T09:06:41.984Z,57.75
2023-02-23T09:07:45.959Z,56.88
2023-02-23T09:08:49.094Z,56.68
2023-02-23T09:09:58.847Z,56.33
2023-02-23T09:11:01.868Z,55.51
2023-02-23T09:12:04.755Z,55.56
2023-02-23T09:13:07.453Z,55.28
2023-02-23T09:14:10.737Z,55.09
2023-02-23T09:15:13.526Z,55.29
2023-02-23T09:16:16.615Z,55.58
2023-02-23T09:17:21.035Z,55.23
2023-02-23T09:18:29.739Z,55.34
2023-02-23T09:19:32.450Z,55.43
2023-02-23T09:20:35.280Z,54.67
2023-02-23T09:21:38.031Z,55.99
2023-02-23T09:22:48.949Z,55.96
2023-02-23T09:23:54.873Z,55.69
2023-02-23T09:24:57.820Z,54.77
2023-02-23T09:26:08.267Z,54.63
2023-02-23T09:27:13.085Z,55.50
2023-02-23T09:28:23.649Z,55.21
2023-02-23T09:29:26.412Z,54.85
2023-02-23T09:30:29.556Z,55.27
2023-02-23T09:31:33.461Z,54.33
2023-02-23T09:32:36.997Z,54.51
2023-02-23T09:33:40.646Z,53.92
2023-02-23T09:34:43.344Z,53.48
2023-02-23T09:35:46.217Z,53.39
2023-02-23T09:36:49.065Z,52.80
2023-02-23T09:37:55.602Z,53.78
2023-02-23T09:38:59.181Z,52.50
2023-02-23T09:40:02.355Z,52.33
2023-02-23T09:41:23.493Z,52.43
2023-02-23T09:42:37.257Z,52.24
2023-02-23T09:43:51.200Z,53.08
2023-02-23T09:45:01.600Z,52.92
2023-02-23T09:46:39.735Z,53.00
2023-02-23T09:48:19.154Z,53.74
2023-02-23T09:49:25.962Z,54.23
2023-02-23T09:50:31.473Z,54.41
2023-02-23T09:51:40.974Z,54.25
2023-02-23T09:52:49.143Z,53.93
2023-02-23T09:54:00.272Z,52.92
2023-02-23T09:55:03.010Z,53.82
2023-02-23T09:56:39.359Z,53.08
2023-02-23T09:57:48.977Z,53.03
2023-02-23T09:58:52.250Z,53.24
2023-02-23T09:59:54.914Z,53.31
2023-02-23T10:00:57.927Z,54.10
2023-02-23T10:02:25.413Z,54.83
2023-02-23T10:03:35.097Z,52.99
2023-02-23T10:04:40.643Z,53.63
2023-02-23T10:05:53.573Z,53.37
2023-02-23T10:07:05.931Z,52.95
2023-02-23T10:08:28.876Z,53.24
2023-02-23T10:09:52.109Z,52.96
2023-02-23T10:11:05.200Z,53.92
2023-02-23T10:12:13.801Z,53.15
2023-02-23T10:13:28.929Z,53.56
2023-02-23T10:15:04.382Z,53.35
2023-02-23T10:16:15.972Z,53.75
2023-02-23T10:17:48.083Z,53.51
2023-02-23T10:19:00.634Z,53.34
2023-02-23T10:20:48.805Z,53.85
2023-02-23T10:22:03.930Z,52.45
2023-02-23T10:23:13.397Z,52.71
2023-02-23T10:24:25.496Z,53.24
2023-02-23T10:25:31.946Z,52.72
2023-02-23T10:26:44.320Z,52.05
2023-02-23T10:27:49.788Z,52.00
2023-02-23T10:28:56.167Z,51.74
2023-02-23T10:30:03.003Z,52.43
2023-02-23T10:31:28.558Z,52.50
2023-02-23T10:32:44.893Z,53.40
2023-02-23T10:33:48.734Z,53.65
2023-02-23T10:34:56.834Z,53.15
2023-02-23T10:36:13.874Z,52.73
2023-02-23T10:37:18.178Z,52.52
2023-02-23T10:38:22.131Z,52.27
2023-02-23T10:39:26.502Z,52.83
2023-02-23T10:40:33.243Z,53.13
2023-02-23T10:41:37.528Z,53.58
2023-02-23T10:42:40.442Z,53.46
2023-02-23T10:43:43.320Z,52.95
2023-02-23T10:44:46.796Z,53.26
2023-02-23T10:45:52.723Z,53.96
2023-02-23T10:47:33.702Z,53.48
2023-02-23T10:48:43.434Z,52.93
2023-02-23T10:49:49.507Z,52.65
2023-02-23T10:51:00.404Z,52.28
2023-02-23T10:52:03.174Z,52.47
2023-02-23T10:53:24.156Z,53.72
2023-02-23T10:54:44.813Z,52.78
2023-02-23T10:56:00.425Z,52.72
2023-02-23T10:57:05.891Z,51.90
2023-02-23T10:58:18.418Z,51.76
2023-02-23T10:59:21.805Z,52.80
2023-02-23T11:00:30.686Z,52.67
2023-02-23T11:01:49.058Z,52.60
2023-02-23T11:02:56.173Z,53.04
2023-02-23T11:04:32.816Z,53.70
2023-02-23T11:05:56.810Z,52.20
2023-02-23T11:07:17.666Z,52.92
2023-02-23T11:08:38.520Z,53.08
2023-02-23T11:09:47.187Z,53.17
2023-02-23T11:10:59.697Z,52.50
2023-02-23T11:12:17.061Z,52.16
2023-02-23T11:13:24.096Z,52.64
2023-02-23T11:14:29.885Z,52.80
2023-02-23T11:15:49.753Z,53.13
2023-02-23T11:16:57.944Z,52.70
2023-02-23T11:18:05.238Z,52.38
2023-02-23T11:19:27.871Z,52.22
2023-02-23T11:20:40.030Z,52.13
2023-02-23T11:21:51.791Z,51.68
2023-02-23T11:22:59.048Z,50.82
2023-02-23T11:24:31.193Z,51.11
2023-02-23T11:25:34.175Z,51.38
2023-02-23T11:26:42.911Z,50.70
2023-02-23T11:27:51.693Z,51.48
2023-02-23T11:28:59.696Z,51.79
2023-02-23T11:30:25.733Z,52.47
2023-02-23T11:31:32.721Z,53.01
2023-02-23T11:32:42.990Z,53.70
2023-02-23T11:33:47.893Z,54.10
2023-02-23T11:35:32.865Z,53.15
2023-02-23T11:36:37.577Z,52.84
2023-02-23T11:37:42.025Z,52.04
2023-02-23T11:38:48.157Z,51.49
2023-02-23T11:39:53.249Z,52.08
2023-02-23T11:41:17.919Z,53.15
2023-02-23T11:42:25.777Z,52.67
2023-02-23T11:43:29.014Z,52.91
2023-02-23T11:44:33.617Z,53.50
2023-02-23T11:45:48.125Z,54.00
2023-02-23T11:46:52.548Z,52.67
2023-02-23T11:47:59.755Z,52.73
2023-02-23T11:49:18.236Z,52.28
2023-02-23T11:50:30.854Z,52.32
2023-02-23T11:51:36.211Z,51.87
2023-02-23T11:52:44.965Z,51.61
2023-02-23T11:53:48.241Z,51.03
2023-02-23T11:55:02.661Z,51.47
2023-02-23T11:56:12.936Z,51.71
2023-02-23T11:57:28.608Z,51.78
2023-02-23T11:58:39.916Z,51.85
2023-02-23T11:59:46.262Z,52.82
2023-02-23T12:00:59.474Z,53.05
2023-02-23T12:02:19.445Z,52.67
2023-02-23T12:03:26.255Z,51.91
2023-02-23T12:04:40.981Z,52.46
2023-02-23T12:05:53.471Z,52.86
2023-02-23T12:07:42.269Z,52.33
2023-02-23T12:08:53.439Z,52.18
2023-02-23T12:10:15.548Z,52.51
2023-02-23T12:11:25.246Z,51.20
2023-02-23T12:12:33.224Z,52.07
2023-02-23T12:13:45.295Z,52.09
2023-02-23T12:15:02.809Z,52.06
2023-02-23T12:16:20.845Z,52.94
2023-02-23T12:17:30.772Z,52.45
2023-02-23T12:18:37.058Z,51.86
2023-02-23T12:19:48.620Z,52.14
2023-02-23T12:20:54.647Z,51.63
2023-02-23T12:22:14.014Z,51.78
2023-02-23T12:23:22.042Z,51.42
2023-02-23T12:24:36.163Z,51.34
2023-02-23T12:25:57.902Z,51.38
2023-02-23T12:27:13.162Z,52.32
2023-02-23T12:28:26.392Z,52.02
2023-02-23T12:29:42.289Z,51.64
2023-02-23T12:30:52.375Z,51.28
2023-02-23T12:32:03.366Z,51.60
2023-02-23T12:33:34.695Z,51.98
2023-02-23T12:34:46.861Z,52.28
2023-02-23T12:35:57.858Z,52.86
2023-02-23T12:37:17.767Z,52.87
2023-02-23T12:38:31.196Z,52.83
2023-02-23T12:39:43.586Z,52.25
2023-02-23T12:40:47.727Z,51.43
2023-02-23T12:41:57.102Z,51.03
2023-02-23T12:43:04.137Z,51.15
2023-02-23T12:44:17.649Z,51.37
2023-02-23T12:45:42.347Z,52.19
2023-02-23T12:46:54.102Z,52.83
2023-02-23T12:48:04.356Z,52.68
2023-02-23T12:49:18.256Z,52.26
2023-02-23T12:50:35.989Z,52.59
2023-02-23T12:51:58.983Z,53.03
2023-02-23T12:53:12.997Z,52.51
2023-02-23T12:54:17.946Z,52.23
2023-02-23T12:55:41.195Z,52.09
2023-02-23T12:57:04.511Z,52.36
2023-02-23T12:58:25.317Z,52.87
2023-02-23T13:00:10.815Z,52.51
2023-02-23T13:01:29.838Z,52.52
2023-02-23T13:02:50.059Z,52.33
2023-02-23T13:04:09.222Z,52.34
2023-02-23T13:05:38.361Z,52.36
2023-02-23T13:07:49.473Z,51.60
2023-02-23T13:09:37.363Z,50.64
2023-02-23T13:10:40.428Z,50.91
2023-02-23T13:12:06.598Z,51.34
2023-02-23T13:13:19.507Z,50.31
2023-02-23T13:14:43.484Z,49.96
2023-02-23T13:16:05.646Z,49.86
2023-02-23T13:17:36.556Z,51.56
2023-02-23T13:18:50.271Z,50.15
2023-02-23T13:20:12.040Z,49.65
2023-02-23T13:21:23.186Z,48.96
2023-02-23T13:22:38.160Z,49.42
2023-02-23T13:24:07.760Z,48.70
2023-02-23T13:25:34.260Z,48.96
2023-02-23T13:26:47.841Z,48.73
2023-02-23T13:27:56.814Z,48.42
2023-02-23T13:30:49.427Z,48.40
2023-02-23T13:31:53.432Z,48.04
2023-02-23T13:32:57.361Z,48.27
2023-02-23T13:34:03.093Z,47.44
2023-02-23T13:35:11.080Z,47.98
2023-02-23T13:36:15.094Z,48.10
2023-02-23T13:37:22.808Z,47.64
2023-02-23T13:38:58.020Z,48.24
2023-02-23T13:40:23.164Z,49.00
2023-02-23T13:41:41.574Z,47.74
2023-02-23T13:43:18.039Z,47.55
2023-02-23T13:44:32.908Z,47.14
2023-02-23T13:45:39.042Z,47.94
2023-02-23T13:47:15.315Z,47.53
2023-02-23T13:48:20.976Z,48.24
2023-02-23T13:49:42.939Z,48.10
2023-02-23T13:51:15.418Z,47.78
2023-02-23T13:52:38.326Z,48.93
2023-02-23T13:53:47.289Z,48.79
2023-02-23T13:55:04.170Z,48.15
2023-02-23T13:56:20.369Z,47.69
2023-02-23T13:57:25.108Z,47.73
2023-02-23T13:58:31.463Z,47.83
2023-02-23T13:59:43.094Z,47.93
2023-02-23T14:00:55.552Z,47.92
2023-02-23T14:02:02.948Z,47.38
2023-02-23T14:03:08.472Z,47.97
2023-02-23T14:04:22.262Z,49.70
2023-02-23T14:05:31.909Z,48.29
2023-02-23T14:06:35.528Z,48.04
2023-02-23T14:07:43.125Z,48.71
2023-02-23T14:08:54.889Z,49.65
2023-02-23T14:10:05.275Z,50.51
2023-02-23T14:11:08.817Z,50.03
2023-02-23T14:12:13.342Z,49.79
2023-02-23T14:13:17.154Z,50.11
2023-02-23T14:14:32.484Z,49.63
2023-02-23T14:15:35.446Z,50.33
2023-02-23T14:16:38.658Z,49.93
2023-02-23T14:17:42.333Z,49.76
2023-02-23T14:18:56.226Z,49.44
2023-02-23T14:20:06.697Z,50.48
2023-02-23T14:21:16.657Z,50.06
2023-02-23T14:22:22.660Z,49.29
2023-02-23T14:23:26.551Z,48.46
2023-02-23T14:24:30.174Z,48.70
2023-02-23T14:25:33.319Z,49.33
2023-02-23T14:26:39.619Z,49.17
2023-02-23T14:27:45.336Z,49.42
2023-02-23T14:29:09.849Z,48.94
2023-02-23T14:30:15.106Z,48.75
2023-02-23T14:31:23.535Z,48.04
2023-02-23T14:32:30.172Z,48.50
2023-02-23T14:33:42.198Z,48.40
2023-02-23T14:34:48.217Z,48.77
2023-02-23T14:35:51.614Z,48.15
2023-02-23T14:36:56.873Z,48.96
2023-02-23T14:38:08.907Z,49.61
2023-02-23T14:39:26.017Z,49.62
2023-02-23T14:40:35.714Z,49.76
2023-02-23T14:41:59.477Z,49.75
2023-02-23T14:43:04.492Z,49.53
2023-02-23T14:44:12.379Z,49.78
2023-02-23T14:45:29.133Z,50.02
2023-02-23T14:46:35.322Z,50.56
2023-02-23T14:47:45.716Z,50.50
2023-02-23T14:49:01.709Z,51.30
2023-02-23T14:50:05.399Z,50.97
2023-02-23T14:51:42.784Z,51.05
2023-02-23T14:52:47.594Z,51.88
2023-02-23T14:53:54.140Z,51.88
2023-02-23T14:55:17.659Z,50.96
2023-02-23T14:56:26.186Z,50.46
2023-02-23T14:57:37.326Z,51.49
2023-02-23T14:58:40.456Z,51.56
2023-02-23T14:59:44.635Z,51.55
2023-02-23T15:00:49.383Z,52.01
2023-02-23T15:01:53.008Z,52.12
2023-02-23T15:03:01.217Z,52.09